Kostas — SW3504 — position and weather

sailwx.info

Track history (hours):
 
Tides and Currents Weather Stations Pressure Air Temp Water Temp Dewpoint Dewpoint Depression Visibility Wind Speed Wind Dir Waves Ship Positions

Kostas

Last reported at 2017-Oct-19 15:36 UTC. Time now 2017-Nov-24 09:37 UTC.
Position N 40°05' E 023°60'.
Warning: this ship's position is 35 days out of date.

Length 22 m; draft 2.6 m.

Type: Fishing. MMSI: 239066000.

Date/timePositionNaut miles runAvg speedWind from/ knotsBaromVisibWave heightAir tempDewpointWater temp
2017-Oct-19 15:36N 40°05' E 023°60'0 0.0
2017-Oct-18 23:10N 40°05' E 023°60'1 2.3
2017-Oct-18 22:39N 40°05' E 024°01'0 0.1
2017-Oct-18 22:30N 40°05' E 024°01'4 0.2
2017-Oct-17 22:46N 40°08' E 023°58'2 9.7
2017-Oct-17 22:30N 40°10' E 023°55'4 8.3
2017-Oct-17 22:00N 40°11' E 023°50'0 0.0
2017-Oct-17 21:30N 40°11' E 023°50'0 0.3
2017-Oct-17 21:00N 40°11' E 023°50'0 0.3
2017-Oct-17 20:30N 40°11' E 023°50'1 2.6
2017-Oct-17 20:00N 40°12' E 023°51'0 0.1
2017-Oct-17 19:29N 40°12' E 023°51'0 0.2
2017-Oct-17 19:00N 40°12' E 023°51'0 0.2
2017-Oct-17 18:28N 40°12' E 023°51'0 0.2
2017-Oct-17 18:00N 40°12' E 023°51'0 0.3
2017-Oct-17 17:29N 40°12' E 023°51'0 0.4
2017-Oct-17 17:00N 40°12' E 023°50'0 0.8
2017-Oct-17 16:30N 40°11' E 023°50'4 9.0
2017-Oct-17 16:00N 40°14' E 023°46'1 2.2
2017-Oct-17 15:27N 40°14' E 023°44'4 0.2
2017-Oct-16 16:31N 40°18' E 023°42'0 8.5
2017-Oct-16 16:30N 40°17' E 023°42'4 0.2
2017-Oct-16 01:32N 40°14' E 023°44'0 0.0
2017-Oct-16 01:30N 40°14' E 023°44'  
2017-Oct-13 15:31N 40°14' E 023°44'0 0.0
2017-Oct-13 15:26N 40°14' E 023°44'0 0.0
2017-Oct-13 15:00N 40°14' E 023°44'0 0.0
2017-Oct-13 14:30N 40°14' E 023°44'  
Track history (hours):
 
Tides and Currents Weather Stations Pressure Air Temp Water Temp Dewpoint Dewpoint Depression Visibility Wind Speed Wind Dir Waves Ship Positions

Kostas

Last reported at 2017-Oct-19 15:36 UTC. Time now 2017-Nov-24 09:37 UTC.
Position N 40°05' E 023°60'.
Warning: this ship's position is 35 days out of date.

Length 22 m; draft 2.6 m.

Type: Fishing. MMSI: 239066000.

Date/timePositionNaut miles runAvg speedWind from/ knotsBaromVisibWave heightAir tempDewpointWater temp
2017-Oct-19 15:36N 40°05' E 023°60'0 0.0
2017-Oct-18 23:10N 40°05' E 023°60'1 2.3
2017-Oct-18 22:39N 40°05' E 024°01'0 0.1
2017-Oct-18 22:30N 40°05' E 024°01'4 0.2
2017-Oct-17 22:46N 40°08' E 023°58'2 9.7
2017-Oct-17 22:30N 40°10' E 023°55'4 8.3
2017-Oct-17 22:00N 40°11' E 023°50'0 0.0
2017-Oct-17 21:30N 40°11' E 023°50'0 0.3
2017-Oct-17 21:00N 40°11' E 023°50'0 0.3
2017-Oct-17 20:30N 40°11' E 023°50'1 2.6
2017-Oct-17 20:00N 40°12' E 023°51'0 0.1
2017-Oct-17 19:29N 40°12' E 023°51'0 0.2
2017-Oct-17 19:00N 40°12' E 023°51'0 0.2
2017-Oct-17 18:28N 40°12' E 023°51'0 0.2
2017-Oct-17 18:00N 40°12' E 023°51'0 0.3
2017-Oct-17 17:29N 40°12' E 023°51'0 0.4
2017-Oct-17 17:00N 40°12' E 023°50'0 0.8
2017-Oct-17 16:30N 40°11' E 023°50'4 9.0
2017-Oct-17 16:00N 40°14' E 023°46'1 2.2
2017-Oct-17 15:27N 40°14' E 023°44'4 0.2
2017-Oct-16 16:31N 40°18' E 023°42'0 8.5
2017-Oct-16 16:30N 40°17' E 023°42'4 0.2
2017-Oct-16 01:32N 40°14' E 023°44'0 0.0
2017-Oct-16 01:30N 40°14' E 023°44'  
2017-Oct-13 15:31N 40°14' E 023°44'0 0.0
2017-Oct-13 15:26N 40°14' E 023°44'0 0.0
2017-Oct-13 15:00N 40°14' E 023°44'0 0.0
2017-Oct-13 14:30N 40°14' E 023°44'  

Dump ship's entire track history